createdAt,value
2023-04-02T00:20:12.306Z,0.70
2023-04-02T02:34:39.521Z,0.80
2023-04-02T03:04:21.619Z,0.80
2023-04-02T03:19:15.230Z,1.10
2023-04-02T03:34:12.005Z,1.20
2023-04-02T03:49:06.786Z,1.03
2023-04-02T04:03:58.532Z,1.20
2023-04-02T04:18:50.154Z,1.32
2023-04-02T04:33:39.979Z,1.40
2023-04-02T04:48:37.253Z,1.27
2023-04-02T05:03:39.860Z,1.44
2023-04-02T05:18:36.548Z,1.53
2023-04-02T05:33:27.543Z,1.41
2023-04-02T05:48:29.732Z,1.34
2023-04-02T06:03:33.628Z,1.66
2023-04-02T06:18:28.915Z,2.00
2023-04-02T06:33:20.042Z,1.80
2023-04-02T06:48:10.778Z,2.01
2023-04-02T07:03:01.511Z,2.00
2023-04-02T07:17:52.859Z,1.88
2023-04-02T07:32:43.966Z,1.79
2023-04-02T07:47:35.801Z,1.82
2023-04-02T08:02:26.930Z,1.49
2023-04-02T08:17:18.360Z,1.48
2023-04-02T08:32:09.823Z,1.29
2023-04-02T08:47:01.570Z,1.10
2023-04-02T09:02:03.145Z,1.16
2023-04-02T09:16:58.096Z,0.90
2023-04-02T09:31:50.751Z,0.90
2023-04-02T09:46:54.669Z,0.60
2023-04-02T10:01:54.398Z,0.72
2023-04-02T10:16:48.567Z,0.80
2023-04-02T10:47:12.108Z,0.70
2023-04-02T11:02:06.360Z,0.88
2023-04-02T11:16:58.712Z,0.64
2023-04-02T11:31:49.816Z,0.71
2023-04-02T12:02:05.421Z,0.84
2023-04-02T12:17:01.327Z,0.80
2023-04-02T12:31:51.231Z,0.70
2023-04-02T12:46:41.491Z,1.47
2023-04-02T13:01:30.209Z,2.06
2023-04-02T13:16:20.618Z,2.70
2023-04-02T13:31:10.673Z,4.80
2023-04-02T13:45:59.397Z,5.46
2023-04-02T14:00:50.301Z,4.59
2023-04-02T14:15:56.643Z,3.66
2023-04-02T14:31:07.705Z,1.40
2023-04-02T14:46:02.521Z,1.27
2023-04-02T15:01:07.021Z,1.30
2023-04-02T15:16:14.869Z,1.49
2023-04-02T15:46:29.478Z,1.77
2023-04-02T16:01:24.227Z,1.80
2023-04-02T16:16:30.447Z,1.97
2023-04-02T16:31:25.489Z,1.92
2023-04-02T16:46:39.329Z,1.73
2023-04-02T17:01:25.186Z,1.53
2023-04-02T17:16:18.078Z,1.67
2023-04-02T17:31:21.295Z,1.91
2023-04-02T17:46:21.261Z,2.28
2023-04-02T18:01:29.888Z,2.46
2023-04-02T18:16:39.259Z,2.10
2023-04-02T18:31:37.471Z,2.11
2023-04-02T18:46:30.445Z,2.70
2023-04-02T19:01:30.453Z,2.73
2023-04-02T19:16:46.654Z,3.02
2023-04-02T19:31:49.783Z,3.02
2023-04-02T19:46:44.506Z,3.27
2023-04-02T20:01:33.542Z,3.07
2023-04-02T21:01:09.874Z,2.26
2023-04-02T21:16:03.234Z,2.44
2023-04-02T21:30:52.776Z,2.19
2023-04-02T21:45:42.399Z,2.50
2023-04-02T22:00:33.163Z,2.28
2023-04-02T22:15:23.417Z,3.00
2023-04-02T22:30:14.970Z,2.00
2023-04-02T22:45:04.785Z,2.58
2023-04-02T22:59:54.991Z,2.30
2023-04-02T23:29:35.875Z,1.77
2023-04-02T23:44:26.737Z,1.74
